Time;durP1;ratioP1;P1;durP2;ratioP2;P2;SDS_P1;SDS_P2;PMS_P1;PMS_P2;Temp;Humidity;BMP_temperature;BMP_pressure;BME280_temperature;BME280_humidity;BME280_pressure;Samples;Min_cycle;Max_cycle;Signal;HPM_P1;HPM_P2
2023/06/14 00:00:46;;;;;;;;;15.00;14.67;;;;;-144.24;100.00;60536.00;5051871;28;45403;-76
2023/06/14 00:03:11;;;;;;;;;16.00;16.00;;;;;-144.24;100.00;60536.00;5055912;28;45296;-77
2023/06/14 00:05:42;;;;;;;;;15.67;13.00;;;;;-144.24;100.00;60536.00;5056096;28;45588;-76
2023/06/14 00:08:09;;;;;;;;;13.67;12.33;;;;;-144.24;100.00;60536.00;5038677;28;47849;-78
2023/06/14 00:10:35;;;;;;;;;12.33;10.33;;;;;-144.24;100.00;60536.00;5055872;28;45546;-76
2023/06/14 00:13:04;;;;;;;;;16.00;14.33;;;;;-144.24;100.00;60536.00;5056524;28;45433;-76
2023/06/14 00:15:31;;;;;;;;;17.00;15.00;;;;;-144.24;100.00;60536.00;5054215;28;45540;-76
2023/06/14 00:18:00;;;;;;;;;15.67;14.00;;;;;-144.24;100.00;60536.00;5052555;28;71605;-77
2023/06/14 00:20:28;;;;;;;;;14.67;13.00;;;;;-144.24;100.00;60536.00;5047067;28;45460;-76
2023/06/14 00:22:57;;;;;;;;;17.33;15.00;;;;;-144.24;100.00;60536.00;5055442;28;45675;-76
2023/06/14 00:25:25;;;;;;;;;13.33;12.67;;;;;-144.24;100.00;60536.00;5055202;28;45373;-76
2023/06/14 00:27:50;;;;;;;;;15.00;14.00;;;;;-144.24;100.00;60536.00;5054846;28;46689;-76
2023/06/14 00:30:16;;;;;;;;;14.67;13.67;;;;;-144.24;100.00;60536.00;5054695;28;45343;-75
2023/06/14 00:32:42;;;;;;;;;13.33;13.33;;;;;-144.24;100.00;60536.00;5052583;28;64536;-76
2023/06/14 00:35:08;;;;;;;;;13.33;13.33;;;;;-144.24;100.00;60536.00;5054852;28;45257;-75
2023/06/14 00:37:33;;;;;;;;;17.00;16.00;;;;;-144.24;100.00;60536.00;5055256;28;45223;-77
2023/06/14 00:39:59;;;;;;;;;13.00;13.00;;;;;-144.24;100.00;60536.00;5054278;28;67060;-77
2023/06/14 00:42:28;;;;;;;;;15.00;14.00;;;;;-144.24;100.00;60536.00;5053208;28;45460;-78
2023/06/14 00:44:54;;;;;;;;;16.00;13.67;;;;;-144.24;100.00;60536.00;5056226;28;45424;-77
2023/06/14 00:47:20;;;;;;;;;12.67;12.67;;;;;-144.24;100.00;60536.00;5040754;28;48596;-76
2023/06/14 00:49:46;;;;;;;;;14.67;13.33;;;;;-144.24;100.00;60536.00;5039590;28;46412;-76
2023/06/14 00:52:12;;;;;;;;;15.33;14.00;;;;;-144.24;100.00;60536.00;5056681;28;45467;-76
2023/06/14 00:54:39;;;;;;;;;12.00;12.00;;;;;-144.24;100.00;60536.00;5040330;28;45557;-77
2023/06/14 00:57:05;;;;;;;;;17.00;13.33;;;;;-144.24;100.00;60536.00;5058881;28;47290;-76
2023/06/14 00:59:31;;;;;;;;;14.33;12.67;;;;;-144.24;100.00;60536.00;5058946;28;45438;-77
2023/06/14 01:01:56;;;;;;;;;15.33;15.00;;;;;-144.24;100.00;60536.00;5040420;28;45428;-75
2023/06/14 01:04:22;;;;;;;;;13.67;11.00;;;;;-144.24;100.00;60536.00;5057701;28;60426;-78
2023/06/14 01:07:13;;;;;;;;;15.00;12.00;;;;;-144.24;100.00;60536.00;5039971;28;62574;-76
2023/06/14 01:10:08;;;;;;;;;12.67;12.67;;;;;-144.24;100.00;60536.00;5041463;28;45416;-77
2023/06/14 01:12:46;;;;;;;;;15.00;14.00;;;;;-144.24;100.00;60536.00;5055235;28;45366;-76
2023/06/14 01:15:13;;;;;;;;;19.00;15.33;;;;;-144.24;100.00;60536.00;5055831;28;45230;-76
2023/06/14 01:17:41;;;;;;;;;12.00;12.00;;;;;-144.24;100.00;60536.00;5055545;28;50898;-76
2023/06/14 01:20:10;;;;;;;;;12.00;12.00;;;;;-144.24;100.00;60536.00;5039633;28;45522;-77
2023/06/14 01:22:35;;;;;;;;;14.67;13.67;;;;;-144.24;100.00;60536.00;5058489;28;45486;-77
2023/06/14 01:25:00;;;;;;;;;15.67;14.00;;;;;-144.24;100.00;60536.00;5039537;28;45471;-77
2023/06/14 01:27:29;;;;;;;;;16.00;15.00;;;;;-144.24;100.00;60536.00;5048995;28;73296;-76
2023/06/14 01:29:56;;;;;;;;;15.33;14.00;;;;;-144.24;100.00;60536.00;5058453;28;45367;-77
2023/06/14 01:32:23;;;;;;;;;20.00;14.00;;;;;-144.24;100.00;60536.00;5058133;28;45323;-77
2023/06/14 01:34:49;;;;;;;;;14.33;12.00;;;;;-144.24;100.00;60536.00;5040520;28;45554;-76
2023/06/14 01:37:14;;;;;;;;;12.67;11.00;;;;;-144.24;100.00;60536.00;5039900;28;46797;-75
2023/06/14 01:39:41;;;;;;;;;17.00;15.67;;;;;-144.24;100.00;60536.00;5050753;28;45358;-77
2023/06/14 01:42:07;;;;;;;;;13.33;13.33;;;;;-144.24;100.00;60536.00;5039930;28;45679;-77
2023/06/14 01:44:32;;;;;;;;;17.67;14.33;;;;;-144.24;100.00;60536.00;5039065;28;62489;-76
2023/06/14 01:46:58;;;;;;;;;15.33;15.33;;;;;-144.24;100.00;60536.00;5039308;28;70045;-77
2023/06/14 01:49:23;;;;;;;;;14.00;14.00;;;;;-144.24;100.00;60536.00;5055055;28;56383;-76
2023/06/14 01:51:49;;;;;;;;;13.67;12.00;;;;;-144.24;100.00;60536.00;5035512;28;58502;-78
2023/06/14 01:54:14;;;;;;;;;12.33;12.33;;;;;-144.24;100.00;60536.00;5058059;28;45460;-78
2023/06/14 01:56:40;;;;;;;;;16.67;12.33;;;;;-144.24;100.00;60536.00;5057088;28;47239;-76
2023/06/14 01:59:05;;;;;;;;;15.67;15.00;;;;;-144.24;100.00;60536.00;5057742;28;45238;-77
2023/06/14 02:01:30;;;;;;;;;15.33;15.00;;;;;-144.24;100.00;60536.00;5056248;28;66592;-77
2023/06/14 02:03:56;;;;;;;;;14.33;14.00;;;;;-144.24;100.00;60536.00;5058470;28;45695;-76
2023/06/14 02:06:21;;;;;;;;;13.67;13.67;;;;;-144.24;100.00;60536.00;5056976;28;68834;-75
2023/06/14 02:08:46;;;;;;;;;17.33;16.00;;;;;-144.24;100.00;60536.00;5054718;28;67385;-76
2023/06/14 02:11:12;;;;;;;;;16.67;16.67;;;;;-144.24;100.00;60536.00;5076377;28;57868;-75
2023/06/14 02:13:37;;;;;;;;;17.33;17.33;;;;;-144.24;100.00;60536.00;5067455;28;63411;-77
2023/06/14 02:16:03;;;;;;;;;20.67;20.67;;;;;-144.24;100.00;60536.00;5056152;28;47629;-74
2023/06/14 02:18:28;;;;;;;;;16.33;16.00;;;;;-144.24;100.00;60536.00;5061512;28;45280;-77
2023/06/14 02:20:54;;;;;;;;;23.67;20.33;;;;;-144.24;100.00;60536.00;5058939;28;45315;-76
2023/06/14 02:23:19;;;;;;;;;20.67;17.33;;;;;-144.24;100.00;60536.00;5057978;28;45526;-78
2023/06/14 02:25:45;;;;;;;;;19.67;18.67;;;;;-144.24;100.00;60536.00;5065862;28;65629;-76
2023/06/14 02:28:11;;;;;;;;;21.00;18.00;;;;;-144.24;100.00;60536.00;5059685;28;45469;-77
2023/06/14 02:30:36;;;;;;;;;18.67;17.67;;;;;-144.24;100.00;60536.00;5064264;28;61154;-76
2023/06/14 02:33:02;;;;;;;;;16.67;16.67;;;;;-144.24;100.00;60536.00;5063030;28;45300;-77
2023/06/14 02:35:28;;;;;;;;;18.33;18.33;;;;;-144.24;100.00;60536.00;5064717;28;47475;-76
2023/06/14 02:37:53;;;;;;;;;20.00;20.00;;;;;-144.24;100.00;60536.00;5059552;28;45432;-76
2023/06/14 02:40:19;;;;;;;;;19.33;17.67;;;;;-144.24;100.00;60536.00;5063996;28;45855;-76
2023/06/14 02:42:45;;;;;;;;;19.67;19.67;;;;;-144.24;100.00;60536.00;5059531;28;45298;-75
2023/06/14 02:45:10;;;;;;;;;22.33;18.33;;;;;-144.24;100.00;60536.00;5054631;28;46538;-76
2023/06/14 02:47:36;;;;;;;;;21.67;20.33;;;;;-144.24;100.00;60536.00;5035717;28;66134;-77
2023/06/14 02:50:02;;;;;;;;;21.00;20.00;;;;;-144.24;100.00;60536.00;5059094;28;65433;-76
2023/06/14 02:52:27;;;;;;;;;22.33;19.00;;;;;-144.24;100.00;60536.00;5057289;28;45356;-77
2023/06/14 02:54:54;;;;;;;;;16.67;16.67;;;;;-144.24;100.00;60536.00;5060216;28;46223;-75
2023/06/14 02:57:19;;;;;;;;;21.00;19.33;;;;;-144.24;100.00;60536.00;5065893;28;45209;-76
2023/06/14 02:59:44;;;;;;;;;20.33;19.33;;;;;-144.24;100.00;60536.00;5053777;28;45126;-76
2023/06/14 03:02:10;;;;;;;;;19.00;17.33;;;;;-144.24;100.00;60536.00;5058765;28;59247;-76
2023/06/14 03:04:37;;;;;;;;;19.00;17.33;;;;;-144.24;100.00;60536.00;5055748;28;67525;-75
2023/06/14 03:07:08;;;;;;;;;21.00;19.33;;;;;-144.24;100.00;60536.00;5066732;28;45323;-75
2023/06/14 03:09:36;;;;;;;;;22.67;20.67;;;;;-144.24;100.00;60536.00;5059488;28;45242;-76
2023/06/14 03:12:02;;;;;;;;;18.33;18.33;;;;;-144.24;100.00;60536.00;5062899;28;45531;-77
2023/06/14 03:14:29;;;;;;;;;21.00;20.00;;;;;-144.24;100.00;60536.00;5057735;28;47443;-75
2023/06/14 03:16:56;;;;;;;;;24.67;22.00;;;;;-144.24;100.00;60536.00;5058101;28;45591;-76
2023/06/14 03:19:25;;;;;;;;;24.00;19.33;;;;;-144.24;100.00;60536.00;5059484;28;45338;-77
2023/06/14 03:21:51;;;;;;;;;22.67;18.67;;;;;-144.24;100.00;60536.00;5059579;28;45457;-76
2023/06/14 03:24:17;;;;;;;;;22.67;22.00;;;;;-144.24;100.00;60536.00;5049023;28;46717;-77
2023/06/14 03:26:42;;;;;;;;;21.33;19.67;;;;;-144.24;100.00;60536.00;5058051;28;45453;-77
2023/06/14 03:29:08;;;;;;;;;21.00;18.33;;;;;-144.24;100.00;60536.00;5057263;28;56277;-78
2023/06/14 03:31:34;;;;;;;;;19.00;19.00;;;;;-144.24;100.00;60536.00;5040260;28;65536;-77
2023/06/14 03:34:00;;;;;;;;;19.00;17.67;;;;;-144.24;100.00;60536.00;5057772;28;47417;-77
2023/06/14 03:36:25;;;;;;;;;20.67;19.67;;;;;-144.24;100.00;60536.00;5060744;28;46514;-76
2023/06/14 03:38:51;;;;;;;;;24.67;21.67;;;;;-144.24;100.00;60536.00;5057974;28;45308;-75
2023/06/14 03:41:16;;;;;;;;;25.00;20.67;;;;;-144.24;100.00;60536.00;5058734;28;62954;-77
2023/06/14 03:43:41;;;;;;;;;24.67;21.33;;;;;-144.24;100.00;60536.00;5055196;28;46613;-77
2023/06/14 03:46:07;;;;;;;;;20.33;18.00;;;;;-144.24;100.00;60536.00;5062107;28;64725;-77
2023/06/14 03:48:32;;;;;;;;;21.00;19.33;;;;;-144.24;100.00;60536.00;5057045;28;59383;-75
2023/06/14 03:50:58;;;;;;;;;21.00;20.00;;;;;-144.24;100.00;60536.00;5060063;28;45284;-77
2023/06/14 03:53:23;;;;;;;;;18.67;18.67;;;;;-144.24;100.00;60536.00;5060896;28;46890;-79
2023/06/14 03:55:49;;;;;;;;;21.00;19.00;;;;;-144.24;100.00;60536.00;5058186;28;65996;-77
2023/06/14 03:58:15;;;;;;;;;20.00;16.67;;;;;-144.24;100.00;60536.00;5061812;28;45482;-76
2023/06/14 04:00:41;;;;;;;;;22.33;19.33;;;;;-144.24;100.00;60536.00;5058028;28;63837;-77
2023/06/14 04:03:06;;;;;;;;;16.67;16.67;;;;;-144.24;100.00;60536.00;5062098;28;68693;-76
2023/06/14 04:05:32;;;;;;;;;18.00;17.33;;;;;-144.24;100.00;60536.00;5058077;28;45506;-76
2023/06/14 04:08:00;;;;;;;;;20.00;19.67;;;;;-144.24;100.00;60536.00;5057698;28;45328;-76
2023/06/14 04:10:26;;;;;;;;;26.67;20.67;;;;;-144.24;100.00;60536.00;5056533;28;45489;-76
2023/06/14 04:12:51;;;;;;;;;21.00;18.33;;;;;-144.24;100.00;60536.00;5054689;28;46496;-77
2023/06/14 04:15:17;;;;;;;;;23.33;19.33;;;;;-144.24;100.00;60536.00;5065832;28;45360;-76
2023/06/14 04:17:42;;;;;;;;;19.00;18.33;;;;;-144.24;100.00;60536.00;5058643;28;45464;-76
2023/06/14 04:20:09;;;;;;;;;18.00;18.00;;;;;-144.24;100.00;60536.00;5050264;28;45939;-76
2023/06/14 04:22:36;;;;;;;;;22.33;21.33;;;;;-144.24;100.00;60536.00;5061809;28;46563;-77
2023/06/14 04:25:02;;;;;;;;;21.67;20.00;;;;;-144.24;100.00;60536.00;5058667;28;45486;-76
2023/06/14 04:27:28;;;;;;;;;21.00;18.33;;;;;-144.24;100.00;60536.00;5058984;28;45392;-77
2023/06/14 04:29:56;;;;;;;;;17.67;17.33;;;;;-144.24;100.00;60536.00;5038224;28;45467;-76
2023/06/14 04:32:29;;;;;;;;;21.33;19.67;;;;;-144.24;100.00;60536.00;5056101;28;46553;-77
2023/06/14 04:34:58;;;;;;;;;21.00;18.33;;;;;-144.24;100.00;60536.00;5062565;28;45494;-76
2023/06/14 04:37:24;;;;;;;;;20.33;18.33;;;;;-144.24;100.00;60536.00;5056890;28;45336;-77
2023/06/14 04:39:51;;;;;;;;;21.67;19.33;;;;;-144.24;100.00;60536.00;5064583;28;45414;-76
2023/06/14 04:42:20;;;;;;;;;18.00;17.33;;;;;-144.24;100.00;60536.00;5052459;28;47482;-76
2023/06/14 04:44:47;;;;;;;;;21.33;20.00;;;;;-144.24;100.00;60536.00;5062267;28;45292;-76
2023/06/14 04:47:12;;;;;;;;;27.67;21.00;;;;;-144.24;100.00;60536.00;5056106;28;45162;-77
2023/06/14 04:49:39;;;;;;;;;18.67;18.67;;;;;-144.24;100.00;60536.00;5064221;28;45725;-75
2023/06/14 04:52:05;;;;;;;;;21.00;19.33;;;;;-144.24;100.00;60536.00;5058382;28;46661;-76
2023/06/14 04:54:33;;;;;;;;;21.67;19.33;;;;;-144.24;100.00;60536.00;5061669;28;45275;-77
2023/06/14 04:56:59;;;;;;;;;23.33;17.00;;;;;-144.24;100.00;60536.00;5055589;28;45380;-75
2023/06/14 04:59:24;;;;;;;;;22.00;20.33;;;;;-144.24;100.00;60536.00;5059379;28;45363;-77
2023/06/14 05:01:51;;;;;;;;;22.00;20.00;;;;;-144.24;100.00;60536.00;5055048;28;59721;-77
2023/06/14 05:04:16;;;;;;;;;21.33;21.00;;;;;-144.24;100.00;60536.00;5060582;28;45404;-77
2023/06/14 05:06:44;;;;;;;;;18.33;17.33;;;;;-144.24;100.00;60536.00;5054666;28;45473;-76
2023/06/14 05:09:13;;;;;;;;;18.33;17.67;;;;;-144.24;100.00;60536.00;5037909;28;45521;-77
2023/06/14 05:11:38;;;;;;;;;19.33;19.33;;;;;-144.24;100.00;60536.00;5059833;28;46576;-75
2023/06/14 05:14:03;;;;;;;;;20.00;17.00;;;;;-144.24;100.00;60536.00;5057196;28;48560;-76
2023/06/14 05:16:29;;;;;;;;;22.33;19.67;;;;;-144.24;100.00;60536.00;5061107;28;45434;-79
2023/06/14 05:18:55;;;;;;;;;25.33;20.33;;;;;-144.24;100.00;60536.00;5031588;28;45553;-79
2023/06/14 05:21:20;;;;;;;;;25.33;21.33;;;;;-144.24;100.00;60536.00;5052159;28;47126;-79
2023/06/14 05:23:45;;;;;;;;;20.67;19.67;;;;;-144.24;100.00;60536.00;5050311;28;45515;-79
2023/06/14 05:26:11;;;;;;;;;22.00;22.00;;;;;-144.24;100.00;60536.00;5052467;28;45864;-78
2023/06/14 05:28:36;;;;;;;;;22.67;20.00;;;;;-144.24;100.00;60536.00;5053924;28;61928;-78
2023/06/14 05:31:02;;;;;;;;;25.33;21.00;;;;;-144.24;100.00;60536.00;5052917;28;47714;-79
2023/06/14 05:33:27;;;;;;;;;19.00;17.33;;;;;-144.24;100.00;60536.00;5036590;28;45595;-79
2023/06/14 05:35:52;;;;;;;;;23.00;23.00;;;;;-144.24;100.00;60536.00;5055043;28;45451;-79
2023/06/14 05:38:18;;;;;;;;;24.00;20.67;;;;;-144.24;100.00;60536.00;5056435;28;58036;-77
2023/06/14 05:40:43;;;;;;;;;24.00;22.33;;;;;-144.24;100.00;60536.00;5060837;28;47279;-79
2023/06/14 05:43:08;;;;;;;;;26.00;23.67;;;;;-144.24;100.00;60536.00;5056657;28;60801;-79
2023/06/14 05:45:34;;;;;;;;;22.67;18.67;;;;;-144.24;100.00;60536.00;5038628;28;59914;-79
2023/06/14 05:47:59;;;;;;;;;22.67;20.33;;;;;-144.24;100.00;60536.00;5064057;28;45492;-81
2023/06/14 05:50:25;;;;;;;;;22.67;20.33;;;;;-144.24;100.00;60536.00;5057931;28;46089;-78
2023/06/14 05:52:50;;;;;;;;;20.33;19.67;;;;;-144.24;100.00;60536.00;5056868;28;68271;-78
2023/06/14 05:55:16;;;;;;;;;20.00;20.00;;;;;-144.24;100.00;60536.00;5056409;28;45473;-79
2023/06/14 05:57:42;;;;;;;;;23.33;22.00;;;;;-144.24;100.00;60536.00;5055390;28;45522;-78
2023/06/14 06:00:11;;;;;;;;;22.33;21.33;;;;;-144.24;100.00;60536.00;5053058;28;65276;-82
2023/06/14 06:02:36;;;;;;;;;22.33;22.33;;;;;-144.24;100.00;60536.00;5052695;28;45367;-80
2023/06/14 06:05:02;;;;;;;;;24.00;24.00;;;;;-144.24;100.00;60536.00;5037231;28;45373;-81
2023/06/14 06:07:27;;;;;;;;;21.67;17.67;;;;;-144.24;100.00;60536.00;5058056;28;45474;-81
2023/06/14 06:09:53;;;;;;;;;22.33;19.67;;;;;-144.24;100.00;60536.00;5037460;28;66347;-81
2023/06/14 06:12:18;;;;;;;;;22.33;22.33;;;;;-144.24;100.00;60536.00;5054167;28;59139;-81
2023/06/14 06:14:43;;;;;;;;;19.67;18.00;;;;;-144.24;100.00;60536.00;5054511;28;60134;-81
2023/06/14 06:19:44;;;;;;;;;20.33;18.67;;;;;-144.24;100.00;60536.00;5025685;22;45475;-81
2023/06/14 06:22:10;;;;;;;;;20.00;19.00;;;;;-144.24;100.00;60536.00;4997187;28;45552;-80
2023/06/14 06:24:35;;;;;;;;;13.67;11.00;;;;;-144.24;100.00;60536.00;5013644;28;47288;-78
2023/06/14 06:27:00;;;;;;;;;22.67;20.33;;;;;-144.24;100.00;60536.00;5014387;28;45442;-78
2023/06/14 06:29:26;;;;;;;;;21.33;19.00;;;;;-144.24;100.00;60536.00;4999139;28;46600;-75
2023/06/14 06:31:51;;;;;;;;;20.33;16.67;;;;;-144.24;100.00;60536.00;5014747;28;64345;-78
2023/06/14 06:34:16;;;;;;;;;22.67;20.00;;;;;-144.24;100.00;60536.00;5011239;28;45907;-77
2023/06/14 06:36:42;;;;;;;;;18.00;16.67;;;;;-144.24;100.00;60536.00;5016359;28;45455;-75
2023/06/14 06:39:10;;;;;;;;;17.00;16.00;;;;;-144.24;100.00;60536.00;5014541;28;47262;-76
2023/06/14 06:41:37;;;;;;;;;15.00;14.00;;;;;-144.24;100.00;60536.00;5009686;28;45532;-75
2023/06/14 06:44:03;;;;;;;;;17.33;14.67;;;;;-144.24;100.00;60536.00;5010854;28;45684;-76
2023/06/14 06:46:28;;;;;;;;;14.00;14.00;;;;;-144.24;100.00;60536.00;5010545;28;52534;-75
2023/06/14 06:48:54;;;;;;;;;17.00;14.67;;;;;-144.24;100.00;60536.00;5010593;28;64655;-76
2023/06/14 06:51:19;;;;;;;;;15.33;13.67;;;;;-144.24;100.00;60536.00;5011713;28;45474;-76
2023/06/14 06:53:52;;;;;;;;;19.00;15.00;;;;;-144.24;100.00;60536.00;5011786;28;46594;-75
2023/06/14 06:56:17;;;;;;;;;20.00;16.33;;;;;-144.24;100.00;60536.00;5012299;28;45990;-75
2023/06/14 06:58:42;;;;;;;;;17.00;15.33;;;;;-144.24;100.00;60536.00;5011789;28;67675;-75
2023/06/14 07:01:09;;;;;;;;;14.00;12.00;;;;;-144.24;100.00;60536.00;5015223;28;66866;-75
2023/06/14 07:03:35;;;;;;;;;16.33;13.67;;;;;-144.24;100.00;60536.00;5016679;28;45211;-75
2023/06/14 07:06:00;;;;;;;;;16.00;12.33;;;;;-144.24;100.00;60536.00;5016059;28;45362;-75
2023/06/14 07:08:26;;;;;;;;;15.67;12.67;;;;;-144.24;100.00;60536.00;5014623;28;46598;-76
2023/06/14 07:10:52;;;;;;;;;16.00;12.00;;;;;-144.24;100.00;60536.00;5015520;28;45420;-76
2023/06/14 07:13:17;;;;;;;;;14.00;13.00;;;;;-144.24;100.00;60536.00;5014053;28;45536;-74
2023/06/14 07:15:43;;;;;;;;;19.00;14.00;;;;;-144.24;100.00;60536.00;5015335;28;62694;-75
2023/06/14 07:18:08;;;;;;;;;13.67;12.67;;;;;-144.24;100.00;60536.00;5016260;28;46559;-75
2023/06/14 07:20:34;;;;;;;;;13.33;13.33;;;;;-144.24;100.00;60536.00;5015859;28;45522;-75
2023/06/14 07:22:59;;;;;;;;;16.67;13.00;;;;;-144.24;100.00;60536.00;5016876;28;45278;-76
2023/06/14 07:25:25;;;;;;;;;15.00;15.00;;;;;-144.24;100.00;60536.00;5016446;28;45509;-76
2023/06/14 07:27:50;;;;;;;;;14.00;14.00;;;;;-144.24;100.00;60536.00;5015647;28;46900;-77
2023/06/14 07:30:15;;;;;;;;;18.00;15.00;;;;;-144.24;100.00;60536.00;5014494;28;68210;-77
2023/06/14 07:32:41;;;;;;;;;13.33;13.33;;;;;-144.24;100.00;60536.00;5016395;28;46166;-76
2023/06/14 07:35:07;;;;;;;;;14.67;14.33;;;;;-144.24;100.00;60536.00;5014858;28;56889;-77
2023/06/14 07:37:32;;;;;;;;;19.33;16.00;;;;;-144.24;100.00;60536.00;5015549;28;46286;-77
2023/06/14 07:39:57;;;;;;;;;16.00;14.33;;;;;-144.24;100.00;60536.00;5015969;28;63590;-75
2023/06/14 07:42:22;;;;;;;;;13.00;13.00;;;;;-144.24;100.00;60536.00;5015214;28;45214;-76
2023/06/14 07:44:48;;;;;;;;;14.00;13.00;;;;;-144.24;100.00;60536.00;5009620;28;62888;-75
2023/06/14 07:47:13;;;;;;;;;12.33;12.33;;;;;-144.24;100.00;60536.00;5015647;28;46652;-75
2023/06/14 07:49:39;;;;;;;;;16.00;12.33;;;;;-144.24;100.00;60536.00;5015326;28;64994;-76
2023/06/14 07:52:05;;;;;;;;;17.67;16.33;;;;;-144.24;100.00;60536.00;5015352;28;45400;-76
2023/06/14 07:54:31;;;;;;;;;14.00;12.33;;;;;-144.24;100.00;60536.00;5015355;28;45598;-76
2023/06/14 07:56:57;;;;;;;;;12.33;12.33;;;;;-144.24;100.00;60536.00;5016156;28;47122;-76
2023/06/14 07:59:22;;;;;;;;;16.00;15.00;;;;;-144.24;100.00;60536.00;5016034;28;45325;-76
2023/06/14 08:01:47;;;;;;;;;13.67;12.33;;;;;-144.24;100.00;60536.00;5015832;28;45384;-76
2023/06/14 08:04:16;;;;;;;;;16.00;13.00;;;;;-144.24;100.00;60536.00;5015389;28;45433;-76
2023/06/14 08:06:44;;;;;;;;;16.33;14.00;;;;;-144.24;100.00;60536.00;4996242;28;47208;-76
2023/06/14 08:09:10;;;;;;;;;14.33;13.67;;;;;-144.24;100.00;60536.00;5016955;28;45277;-76
2023/06/14 08:11:35;;;;;;;;;12.67;12.67;;;;;-144.24;100.00;60536.00;5015930;28;45393;-76
2023/06/14 08:14:01;;;;;;;;;15.33;13.67;;;;;-144.24;100.00;60536.00;5015312;28;58961;-76
2023/06/14 08:16:26;;;;;;;;;13.67;13.33;;;;;-144.24;100.00;60536.00;5014914;28;70354;-76
2023/06/14 08:18:51;;;;;;;;;12.33;12.33;;;;;-144.24;100.00;60536.00;5014375;28;67416;-76
2023/06/14 08:21:17;;;;;;;;;12.00;11.67;;;;;-144.24;100.00;60536.00;5016021;28;46521;-76
2023/06/14 08:23:43;;;;;;;;;11.33;11.33;;;;;-144.24;100.00;60536.00;5015583;28;45570;-75
2023/06/14 08:26:09;;;;;;;;;13.67;11.33;;;;;-144.24;100.00;60536.00;5015578;28;47004;-77
2023/06/14 08:28:34;;;;;;;;;16.33;12.00;;;;;-144.24;100.00;60536.00;4996981;28;45463;-76
2023/06/14 08:31:00;;;;;;;;;12.67;12.00;;;;;-144.24;100.00;60536.00;5015559;28;45514;-77
2023/06/14 08:33:25;;;;;;;;;14.00;13.00;;;;;-144.24;100.00;60536.00;5016033;28;45571;-77
2023/06/14 08:35:50;;;;;;;;;14.33;12.00;;;;;-144.24;100.00;60536.00;5013852;28;73091;-77
2023/06/14 08:38:16;;;;;;;;;15.00;13.00;;;;;-144.24;100.00;60536.00;5013667;28;45451;-77
2023/06/14 08:40:41;;;;;;;;;15.67;13.00;;;;;-144.24;100.00;60536.00;5015501;28;45463;-76
2023/06/14 08:43:07;;;;;;;;;13.33;13.00;;;;;-144.24;100.00;60536.00;5015479;28;45563;-77
2023/06/14 08:45:33;;;;;;;;;14.00;11.67;;;;;-144.24;100.00;60536.00;5015166;28;46411;-75
2023/06/14 08:47:59;;;;;;;;;15.00;14.00;;;;;-144.24;100.00;60536.00;5014812;28;45407;-76
2023/06/14 08:50:29;;;;;;;;;14.00;13.67;;;;;-144.24;100.00;60536.00;5014990;28;45558;-77
2023/06/14 08:53:00;;;;;;;;;11.00;10.00;;;;;-144.24;100.00;60536.00;5015326;28;45367;-76
2023/06/14 08:55:27;;;;;;;;;13.33;12.00;;;;;-144.24;100.00;60536.00;5014692;28;46464;-76
2023/06/14 08:57:54;;;;;;;;;10.00;9.67;;;;;-144.24;100.00;60536.00;5015343;28;45542;-76
2023/06/14 09:00:21;;;;;;;;;13.00;11.67;;;;;-144.24;100.00;60536.00;4996721;28;45496;-75
2023/06/14 09:02:46;;;;;;;;;14.00;14.00;;;;;-144.24;100.00;60536.00;5015240;28;45227;-76
2023/06/14 09:05:17;;;;;;;;;13.67;13.67;;;;;-144.24;100.00;60536.00;5014678;28;47383;-76
2023/06/14 09:07:43;;;;;;;;;17.00;12.00;;;;;-144.24;100.00;60536.00;4999181;28;45469;-76
2023/06/14 09:10:14;;;;;;;;;13.00;13.00;;;;;-144.24;100.00;60536.00;5018312;28;45452;-76
2023/06/14 09:12:39;;;;;;;;;14.67;11.67;;;;;-144.24;100.00;60536.00;5018531;28;45198;-76
2023/06/14 09:15:06;;;;;;;;;14.67;13.00;;;;;-144.24;100.00;60536.00;5018563;28;46286;-76
2023/06/14 09:17:38;;;;;;;;;13.33;13.33;;;;;-144.24;100.00;60536.00;5018243;28;45451;-77
2023/06/14 09:20:17;;;;;;;;;11.00;11.00;;;;;-144.24;100.00;60536.00;5018500;28;45526;-76
2023/06/14 09:22:42;;;;;;;;;16.67;13.67;;;;;-144.24;100.00;60536.00;5017801;28;45503;-76
2023/06/14 09:25:08;;;;;;;;;12.67;12.67;;;;;-144.24;100.00;60536.00;5017523;28;66380;-76
2023/06/14 09:27:33;;;;;;;;;14.00;13.00;;;;;-144.24;100.00;60536.00;5017868;28;45363;-77
2023/06/14 09:29:59;;;;;;;;;13.00;11.33;;;;;-144.24;100.00;60536.00;5018119;28;45506;-76
2023/06/14 09:32:25;;;;;;;;;15.33;12.33;;;;;-144.24;100.00;60536.00;5018277;28;45511;-76
2023/06/14 09:34:50;;;;;;;;;10.67;10.67;;;;;-144.24;100.00;60536.00;5018294;28;47361;-78
2023/06/14 09:37:32;;;;;;;;;13.00;10.33;;;;;-144.24;100.00;60536.00;5017319;28;45562;-78
2023/06/14 09:39:58;;;;;;;;;13.67;12.00;;;;;-144.24;100.00;60536.00;5018120;28;45467;-76
2023/06/14 09:42:28;;;;;;;;;11.00;10.00;;;;;-144.24;100.00;60536.00;5017326;28;45605;-76
2023/06/14 09:44:55;;;;;;;;;13.00;11.00;;;;;-144.24;100.00;60536.00;5017580;28;47387;-77
2023/06/14 09:47:21;;;;;;;;;10.67;10.67;;;;;-144.24;100.00;60536.00;5018229;28;45409;-77
2023/06/14 09:49:47;;;;;;;;;10.00;10.00;;;;;-144.24;100.00;60536.00;5017630;28;45487;-77
2023/06/14 09:52:19;;;;;;;;;8.00;7.00;;;;;-144.24;100.00;60536.00;4998999;28;45440;-77
2023/06/14 09:54:47;;;;;;;;;10.67;10.67;;;;;-144.24;100.00;60536.00;5017667;28;46594;-77
2023/06/14 09:57:20;;;;;;;;;12.33;7.33;;;;;-144.24;100.00;60536.00;5017864;28;45500;-76
2023/06/14 09:59:47;;;;;;;;;11.00;11.00;;;;;-144.24;100.00;60536.00;5000097;28;45626;-76
2023/06/14 10:02:25;;;;;;;;;12.00;12.00;;;;;-144.24;100.00;60536.00;5017889;28;45397;-77
2023/06/14 10:05:09;;;;;;;;;13.67;12.00;;;;;-144.24;100.00;60536.00;5016938;28;45513;-76
2023/06/14 10:07:51;;;;;;;;;13.00;10.00;;;;;-144.24;100.00;60536.00;5014720;28;45255;-77
2023/06/14 10:10:16;;;;;;;;;13.67;11.67;;;;;-144.24;100.00;60536.00;4999276;28;45592;-77
2023/06/14 10:12:41;;;;;;;;;13.00;11.67;;;;;-144.24;100.00;60536.00;4983021;28;45615;-76
2023/06/14 10:15:17;;;;;;;;;14.67;13.67;;;;;-144.24;100.00;60536.00;4998589;28;74028;-77
2023/06/14 10:17:46;;;;;;;;;13.00;13.00;;;;;-144.24;100.00;60536.00;4998740;28;45536;-76
2023/06/14 10:20:27;;;;;;;;;11.67;10.00;;;;;-144.24;100.00;60536.00;5017397;28;45280;-76
2023/06/14 10:23:22;;;;;;;;;9.67;9.67;;;;;-144.24;100.00;60536.00;5016321;28;45504;-77
2023/06/14 10:25:50;;;;;;;;;9.67;8.33;;;;;-144.24;100.00;60536.00;4992547;28;45749;-76
2023/06/14 10:28:18;;;;;;;;;12.67;10.33;;;;;-144.24;100.00;60536.00;5015126;28;45916;-77
2023/06/14 10:31:05;;;;;;;;;9.00;9.00;;;;;-144.24;100.00;60536.00;5017076;28;45503;-77
2023/06/14 10:33:32;;;;;;;;;12.33;10.33;;;;;-144.24;100.00;60536.00;5011243;28;45465;-77
2023/06/14 10:36:07;;;;;;;;;10.33;10.33;;;;;-144.24;100.00;60536.00;4999479;28;46884;-76
2023/06/14 10:38:34;;;;;;;;;11.33;11.33;;;;;-144.24;100.00;60536.00;5017389;28;45514;-77
2023/06/14 10:40:59;;;;;;;;;12.67;12.67;;;;;-144.24;100.00;60536.00;5016238;28;45590;-76
2023/06/14 10:43:25;;;;;;;;;11.00;11.00;;;;;-144.24;100.00;60536.00;4998745;28;50211;-77
2023/06/14 10:46:23;;;;;;;;;15.00;13.00;;;;;-144.24;100.00;60536.00;5016606;28;47380;-76
2023/06/14 10:48:48;;;;;;;;;12.33;10.67;;;;;-144.24;100.00;60536.00;5016716;28;45263;-77
2023/06/14 10:51:20;;;;;;;;;13.00;13.00;;;;;-144.24;100.00;60536.00;5016819;28;45478;-75
2023/06/14 10:53:51;;;;;;;;;12.33;12.33;;;;;-144.24;100.00;60536.00;5017576;28;45340;-77
2023/06/14 10:56:29;;;;;;;;;12.33;12.33;;;;;-144.24;100.00;60536.00;5016817;28;46312;-75